createdAt,value
2019-03-11T00:00:05.133Z,3.20
2019-03-11T00:02:38.769Z,3.20
2019-03-11T00:05:11.028Z,3.10
2019-03-11T00:07:43.580Z,3.10
2019-03-11T00:10:15.450Z,3.00
2019-03-11T00:12:48.428Z,2.80
2019-03-11T00:15:19.791Z,2.70
2019-03-11T00:17:53.278Z,2.40
2019-03-11T00:20:27.030Z,2.40
2019-03-11T00:23:00.676Z,2.20
2019-03-11T00:25:40.568Z,1.80
2019-03-11T00:28:13.061Z,1.80
2019-03-11T00:30:47.407Z,1.60
2019-03-11T00:33:34.737Z,1.40
2019-03-11T00:36:14.422Z,1.30
2019-03-11T00:38:57.723Z,1.30
2019-03-11T00:41:33.816Z,1.20
2019-03-11T00:44:07.491Z,1.20
2019-03-11T00:46:43.327Z,1.10
2019-03-11T00:49:17.516Z,1.10
2019-03-11T00:51:48.919Z,1.10
2019-03-11T00:54:22.082Z,1.10
2019-03-11T00:56:54.354Z,1.10
2019-03-11T00:59:25.737Z,1.10
2019-03-11T01:02:01.783Z,1.20
2019-03-11T01:04:34.760Z,1.20
2019-03-11T01:07:08.493Z,1.20
2019-03-11T01:09:40.911Z,1.20
2019-03-11T01:12:12.605Z,1.20
2019-03-11T01:14:43.199Z,1.30
2019-03-11T01:17:14.396Z,1.30
2019-03-11T01:19:45.272Z,1.20
2019-03-11T01:22:15.864Z,1.20
2019-03-11T01:24:48.208Z,1.20
2019-03-11T01:27:19.167Z,1.20
2019-03-11T01:29:50.563Z,1.20
2019-03-11T01:32:22.117Z,1.10
2019-03-11T01:34:53.112Z,1.10
2019-03-11T01:37:25.370Z,1.10
2019-03-11T01:39:56.477Z,1.10
2019-03-11T01:42:27.621Z,1.10
2019-03-11T01:45:03.143Z,1.10
2019-03-11T01:47:35.121Z,1.10
2019-03-11T01:50:10.254Z,1.10
2019-03-11T01:52:44.950Z,1.10
2019-03-11T01:55:17.369Z,1.10
2019-03-11T01:57:51.706Z,1.10
2019-03-11T02:00:23.597Z,1.10
2019-03-11T02:02:56.526Z,1.10
2019-03-11T02:05:28.176Z,1.10
2019-03-11T02:08:01.017Z,1.10
2019-03-11T02:10:31.969Z,1.10
2019-03-11T02:13:03.097Z,1.10
2019-03-11T02:15:35.493Z,1.10
2019-03-11T02:18:08.912Z,1.10
2019-03-11T02:20:39.579Z,1.10
2019-03-11T02:23:12.307Z,1.10
2019-03-11T02:25:43.298Z,1.10
2019-03-11T02:28:15.744Z,1.10
2019-03-11T02:30:46.409Z,1.10
2019-03-11T02:33:18.806Z,1.10
2019-03-11T02:35:57.385Z,1.10
2019-03-11T02:38:29.820Z,1.10
2019-03-11T02:41:01.527Z,1.10
2019-03-11T02:43:35.637Z,1.20
2019-03-11T02:46:07.724Z,1.20
2019-03-11T02:48:40.024Z,1.20
2019-03-11T02:51:11.972Z,1.20
2019-03-11T02:53:43.423Z,1.20
2019-03-11T02:56:19.384Z,1.20
2019-03-11T02:58:50.516Z,1.30
2019-03-11T03:01:45.684Z,1.30
2019-03-11T03:04:23.668Z,1.30
2019-03-11T03:06:55.136Z,1.40
2019-03-11T03:09:31.671Z,1.40
2019-03-11T03:12:03.219Z,1.40
2019-03-11T03:14:36.306Z,1.40
2019-03-11T03:17:12.395Z,1.50
2019-03-11T03:19:44.383Z,1.50
2019-03-11T03:22:18.746Z,1.50
2019-03-11T03:24:50.708Z,1.50
2019-03-11T03:27:25.681Z,1.50
2019-03-11T03:29:59.990Z,1.60
2019-03-11T03:32:33.115Z,1.60
2019-03-11T03:35:06.987Z,1.60
2019-03-11T03:37:44.417Z,1.60
2019-03-11T03:40:17.243Z,1.70
2019-03-11T03:42:55.457Z,1.70
2019-03-11T03:45:34.659Z,1.70
2019-03-11T03:48:10.092Z,1.70
2019-03-11T03:50:44.478Z,1.80
2019-03-11T03:53:20.192Z,1.80
2019-03-11T03:55:54.392Z,1.80
2019-03-11T03:58:28.473Z,1.80
2019-03-11T04:01:08.272Z,1.90
2019-03-11T04:03:42.061Z,1.90
2019-03-11T04:06:13.514Z,1.90
2019-03-11T04:08:52.477Z,1.90
2019-03-11T04:11:27.236Z,1.90
2019-03-11T04:13:58.486Z,2.00
2019-03-11T04:16:32.908Z,2.00
2019-03-11T04:19:07.570Z,2.00
2019-03-11T04:21:41.396Z,1.90
2019-03-11T04:24:16.852Z,1.90
2019-03-11T04:26:58.346Z,1.90
2019-03-11T04:29:30.276Z,1.90
2019-03-11T04:32:03.816Z,1.90
2019-03-11T04:34:36.307Z,1.80
2019-03-11T04:37:09.530Z,1.80
2019-03-11T04:39:41.865Z,1.70
2019-03-11T04:42:14.229Z,1.70
2019-03-11T04:44:45.780Z,1.70
2019-03-11T04:47:19.416Z,1.70
2019-03-11T04:49:55.913Z,1.70
2019-03-11T04:52:28.861Z,1.70
2019-03-11T04:55:00.688Z,1.60
2019-03-11T04:57:41.426Z,1.60
2019-03-11T05:00:15.170Z,1.60
2019-03-11T05:02:47.153Z,1.60
2019-03-11T05:05:19.906Z,1.60
2019-03-11T05:07:51.210Z,1.60
2019-03-11T05:10:23.051Z,1.60
2019-03-11T05:12:57.135Z,1.50
2019-03-11T05:15:32.411Z,1.50
2019-03-11T05:18:03.635Z,1.50
2019-03-11T05:20:42.996Z,1.60
2019-03-11T05:23:15.938Z,1.60
2019-03-11T05:25:47.360Z,1.60
2019-03-11T05:28:18.614Z,1.60
2019-03-11T05:30:54.936Z,1.60
2019-03-11T05:33:29.964Z,1.60
2019-03-11T05:36:04.358Z,1.60
2019-03-11T05:38:35.746Z,1.60
2019-03-11T05:41:10.914Z,1.50
2019-03-11T05:43:42.111Z,1.50
2019-03-11T05:46:14.366Z,1.50
2019-03-11T05:48:49.510Z,1.50
2019-03-11T05:51:31.134Z,1.50
2019-03-11T05:53:55.159Z,1.60
2019-03-11T05:56:27.628Z,1.60
2019-03-11T05:59:03.081Z,1.60
2019-03-11T06:01:34.599Z,1.60
2019-03-11T06:04:06.791Z,1.70
2019-03-11T06:06:38.376Z,1.70
2019-03-11T06:09:11.464Z,1.70
2019-03-11T06:11:43.657Z,1.80
2019-03-11T06:14:16.011Z,1.80
2019-03-11T06:16:47.391Z,1.90
2019-03-11T06:19:22.343Z,2.00
2019-03-11T06:22:06.108Z,2.10
2019-03-11T06:24:41.146Z,2.20
2019-03-11T06:27:15.558Z,2.20
2019-03-11T06:29:47.350Z,2.20
2019-03-11T06:32:18.612Z,2.20
2019-03-11T06:34:52.518Z,2.30
2019-03-11T06:37:25.707Z,2.30
2019-03-11T06:39:59.699Z,2.40
2019-03-11T06:42:39.241Z,2.50
2019-03-11T06:45:11.821Z,2.60
2019-03-11T06:47:47.459Z,2.60
2019-03-11T06:50:19.449Z,2.70
2019-03-11T06:52:50.774Z,2.70
2019-03-11T06:55:24.310Z,2.80
2019-03-11T06:57:57.489Z,2.80
2019-03-11T07:00:28.928Z,2.80
2019-03-11T07:03:02.627Z,2.80
2019-03-11T07:05:34.207Z,2.80
2019-03-11T07:08:08.835Z,2.80
2019-03-11T07:10:40.875Z,2.80
2019-03-11T07:13:13.267Z,2.80
2019-03-11T07:15:44.763Z,2.80
2019-03-11T07:18:18.953Z,2.80
2019-03-11T07:20:55.780Z,2.90
2019-03-11T07:23:29.395Z,2.90
2019-03-11T07:26:00.985Z,3.00
2019-03-11T07:28:31.941Z,3.00
2019-03-11T07:31:03.579Z,3.00
2019-03-11T07:33:36.210Z,3.00
2019-03-11T07:36:07.491Z,3.00
2019-03-11T07:38:38.542Z,3.10
2019-03-11T07:41:11.120Z,3.00
2019-03-11T07:43:43.198Z,2.90
2019-03-11T07:46:16.025Z,2.90
2019-03-11T07:48:46.679Z,2.90
2019-03-11T07:51:19.819Z,3.10
2019-03-11T07:53:51.790Z,3.30
2019-03-11T07:56:25.276Z,3.30
2019-03-11T07:58:56.012Z,3.20
2019-03-11T08:01:26.484Z,3.00
2019-03-11T08:03:58.822Z,2.90
2019-03-11T08:06:32.321Z,3.10
2019-03-11T08:09:05.118Z,3.20
2019-03-11T08:11:36.901Z,3.40
2019-03-11T08:14:09.155Z,3.60
2019-03-11T08:16:40.261Z,3.80
2019-03-11T08:19:12.452Z,3.80
2019-03-11T08:21:43.236Z,3.80
2019-03-11T08:24:16.699Z,3.80
2019-03-11T08:26:48.086Z,3.80
2019-03-11T08:29:19.659Z,4.00
2019-03-11T08:31:50.158Z,4.20
2019-03-11T08:34:22.766Z,4.50
2019-03-11T08:36:55.715Z,4.50
2019-03-11T08:39:28.862Z,4.40
2019-03-11T08:42:00.247Z,4.40
2019-03-11T08:44:34.016Z,4.40
2019-03-11T08:47:05.852Z,4.30
2019-03-11T08:49:39.059Z,4.20
2019-03-11T08:52:09.836Z,4.50
2019-03-11T08:54:43.472Z,4.70
2019-03-11T08:57:20.275Z,4.70
2019-03-11T08:59:53.448Z,4.70
2019-03-11T09:02:26.368Z,4.70
2019-03-11T09:04:59.292Z,4.60
2019-03-11T09:07:32.402Z,4.80
2019-03-11T09:10:07.399Z,4.80
2019-03-11T09:12:40.213Z,4.70
2019-03-11T09:15:18.178Z,4.40
2019-03-11T09:17:51.737Z,4.20
2019-03-11T09:20:23.240Z,4.30
2019-03-11T09:22:54.754Z,4.50
2019-03-11T09:25:28.344Z,4.70
2019-03-11T09:28:01.660Z,4.60
2019-03-11T09:30:33.383Z,4.50
2019-03-11T09:33:05.423Z,4.90
2019-03-11T09:35:36.914Z,5.00
2019-03-11T09:38:10.929Z,5.00
2019-03-11T09:40:43.240Z,5.00
2019-03-11T09:43:17.359Z,4.90
2019-03-11T09:45:51.098Z,4.70
2019-03-11T09:48:22.786Z,4.60
2019-03-11T09:50:55.675Z,4.60
2019-03-11T09:53:28.112Z,4.50
2019-03-11T09:56:04.925Z,4.50
2019-03-11T09:58:36.334Z,4.50
2019-03-11T10:01:07.844Z,4.70
2019-03-11T10:03:38.458Z,5.00
2019-03-11T10:06:09.408Z,5.00
2019-03-11T10:08:41.345Z,5.20
2019-03-11T10:11:14.151Z,5.60
2019-03-11T10:13:46.710Z,5.80
2019-03-11T10:16:18.152Z,5.60
2019-03-11T10:18:53.179Z,5.60
2019-03-11T10:21:25.496Z,5.90
2019-03-11T10:24:01.834Z,6.20
2019-03-11T10:26:34.167Z,6.50
2019-03-11T10:29:04.626Z,6.80
2019-03-11T10:31:39.095Z,7.10
2019-03-11T10:34:10.301Z,7.20
2019-03-11T10:36:43.991Z,7.30
2019-03-11T10:39:16.255Z,7.60
2019-03-11T10:41:50.020Z,7.70
2019-03-11T10:44:23.801Z,7.50
2019-03-11T10:47:01.034Z,6.90
2019-03-11T10:49:35.223Z,7.10
2019-03-11T10:52:10.448Z,7.50
2019-03-11T10:54:43.400Z,7.90
2019-03-11T10:57:16.671Z,7.80
2019-03-11T10:59:49.752Z,7.70
2019-03-11T11:02:26.995Z,7.70
2019-03-11T11:05:06.384Z,7.60
2019-03-11T11:07:42.558Z,7.80
2019-03-11T11:10:18.208Z,7.70
2019-03-11T11:12:53.337Z,7.30
2019-03-11T11:15:25.115Z,7.40
2019-03-11T11:17:59.491Z,7.30
2019-03-11T11:20:34.103Z,7.20
2019-03-11T11:23:22.980Z,6.90
2019-03-11T11:25:58.568Z,7.00
2019-03-11T11:28:45.214Z,6.80
2019-03-11T11:31:18.762Z,6.90
2019-03-11T11:33:52.320Z,7.00
2019-03-11T11:36:24.261Z,7.40
2019-03-11T11:39:00.055Z,7.80
2019-03-11T11:41:38.156Z,7.50
2019-03-11T11:44:12.387Z,7.30
2019-03-11T11:46:49.478Z,6.80
2019-03-11T11:49:29.342Z,6.90
2019-03-11T11:52:01.436Z,7.00
2019-03-11T11:54:34.686Z,7.10
2019-03-11T11:57:08.364Z,7.20
2019-03-11T11:59:53.661Z,7.10
2019-03-11T12:02:17.186Z,7.00
2019-03-11T12:04:49.008Z,7.50
2019-03-11T12:07:23.511Z,7.60
2019-03-11T12:10:00.631Z,7.70
2019-03-11T12:12:35.085Z,7.80
2019-03-11T12:15:12.386Z,7.80
2019-03-11T12:17:44.942Z,7.70
2019-03-11T12:20:20.207Z,7.60
2019-03-11T12:22:51.399Z,7.30
2019-03-11T12:25:22.398Z,7.50
2019-03-11T12:27:54.891Z,7.60
2019-03-11T12:30:30.788Z,7.80
2019-03-11T12:33:03.700Z,7.90
2019-03-11T12:35:36.749Z,7.80
2019-03-11T12:38:09.673Z,7.80
2019-03-11T12:40:42.554Z,7.80
2019-03-11T12:43:14.132Z,7.90
2019-03-11T12:45:50.846Z,7.80
2019-03-11T12:48:22.855Z,7.70
2019-03-11T12:50:54.459Z,7.70
2019-03-11T12:53:28.055Z,7.70
2019-03-11T12:55:59.424Z,7.90
2019-03-11T12:58:41.603Z,7.90
2019-03-11T13:01:10.176Z,7.90
2019-03-11T13:03:40.965Z,8.00
2019-03-11T13:06:12.606Z,7.90
2019-03-11T13:08:47.055Z,7.70
2019-03-11T13:11:19.421Z,7.60
2019-03-11T13:13:52.806Z,7.70
2019-03-11T13:16:26.548Z,7.70
2019-03-11T13:19:12.491Z,7.70
2019-03-11T13:21:36.524Z,7.60
2019-03-11T13:24:08.766Z,7.70
2019-03-11T13:26:39.492Z,7.70
2019-03-11T13:29:11.335Z,7.50
2019-03-11T13:31:45.350Z,7.70
2019-03-11T13:34:17.791Z,7.80
2019-03-11T13:36:50.131Z,7.80
2019-03-11T13:39:22.725Z,7.80
2019-03-11T13:41:55.962Z,7.90
2019-03-11T13:44:27.125Z,7.90
2019-03-11T13:46:58.725Z,8.10
2019-03-11T13:49:30.049Z,8.30
2019-03-11T13:52:01.267Z,8.10
2019-03-11T13:54:36.656Z,8.00
2019-03-11T13:57:13.425Z,8.00
2019-03-11T13:59:45.366Z,8.10
2019-03-11T14:02:19.832Z,7.70
2019-03-11T14:04:55.083Z,7.50
2019-03-11T14:07:30.911Z,7.30
2019-03-11T14:10:01.837Z,7.20
2019-03-11T14:12:33.717Z,7.20
2019-03-11T14:15:04.729Z,7.30
2019-03-11T14:17:36.750Z,7.40
2019-03-11T14:20:10.209Z,7.30
2019-03-11T14:22:43.035Z,7.30
2019-03-11T14:25:18.282Z,7.10
2019-03-11T14:27:52.903Z,7.10
2019-03-11T14:30:25.364Z,7.00
2019-03-11T14:32:56.227Z,6.90
2019-03-11T14:35:27.414Z,6.80
2019-03-11T14:37:58.960Z,6.70
2019-03-11T14:40:29.642Z,6.60
2019-03-11T14:43:00.421Z,6.60
2019-03-11T14:45:31.577Z,6.60
2019-03-11T14:48:02.289Z,6.50
2019-03-11T14:50:32.971Z,6.40
2019-03-11T14:53:04.862Z,6.50
2019-03-11T14:55:35.951Z,6.40
2019-03-11T14:58:07.076Z,6.40
2019-03-11T15:00:38.502Z,6.40
2019-03-11T15:03:09.562Z,6.30
2019-03-11T15:05:40.331Z,6.40
2019-03-11T15:08:12.608Z,6.30
2019-03-11T15:10:43.485Z,6.20
2019-03-11T15:13:14.186Z,6.20
2019-03-11T15:15:44.688Z,6.20
2019-03-11T15:18:15.126Z,6.10
2019-03-11T15:20:45.493Z,6.10
2019-03-11T15:23:20.786Z,6.00
2019-03-11T15:25:51.195Z,6.10
2019-03-11T15:28:22.810Z,6.00
2019-03-11T15:30:53.850Z,6.00
2019-03-11T15:33:24.212Z,5.90
2019-03-11T15:35:55.024Z,5.80
2019-03-11T15:38:25.581Z,5.80
2019-03-11T15:40:56.542Z,5.80
2019-03-11T15:43:27.226Z,5.70
2019-03-11T15:45:58.330Z,5.70
2019-03-11T15:48:29.346Z,5.60
2019-03-11T15:51:00.709Z,5.60
2019-03-11T15:53:31.740Z,5.50
2019-03-11T15:56:02.602Z,5.50
2019-03-11T15:58:33.365Z,5.40
2019-03-11T16:01:04.160Z,5.40
2019-03-11T16:03:36.514Z,5.30
2019-03-11T16:06:08.166Z,5.30
2019-03-11T16:08:40.482Z,5.30
2019-03-11T16:11:10.984Z,5.20
2019-03-11T16:13:43.080Z,5.10
2019-03-11T16:16:14.810Z,5.00
2019-03-11T16:18:45.516Z,5.00
2019-03-11T16:21:16.270Z,4.90
2019-03-11T16:23:48.032Z,4.80
2019-03-11T16:26:20.065Z,4.80
2019-03-11T16:28:51.704Z,4.70
2019-03-11T16:31:22.685Z,4.70
2019-03-11T16:33:54.077Z,4.70
2019-03-11T16:36:24.749Z,4.60
2019-03-11T16:38:56.223Z,4.60
2019-03-11T16:41:27.733Z,4.50
2019-03-11T16:43:58.432Z,4.50
2019-03-11T16:46:28.972Z,4.40
2019-03-11T16:48:59.721Z,4.40
2019-03-11T16:51:30.062Z,4.30
2019-03-11T16:54:02.255Z,4.30
2019-03-11T16:56:32.640Z,4.30
2019-03-11T16:59:03.135Z,4.30
2019-03-11T17:01:33.664Z,4.20
2019-03-11T17:04:04.901Z,4.20
2019-03-11T17:06:35.620Z,4.20
2019-03-11T17:09:08.959Z,4.10
2019-03-11T17:11:41.185Z,4.10
2019-03-11T17:14:12.258Z,4.10
2019-03-11T17:16:42.981Z,4.00
2019-03-11T17:19:13.944Z,4.00
2019-03-11T17:21:44.546Z,4.00
2019-03-11T17:24:15.480Z,4.00
2019-03-11T17:26:46.624Z,4.00
2019-03-11T17:29:17.053Z,4.00
2019-03-11T17:31:48.438Z,3.90
2019-03-11T17:34:19.694Z,3.90
2019-03-11T17:36:49.891Z,3.90
2019-03-11T17:39:21.078Z,3.80
2019-03-11T17:41:51.310Z,3.90
2019-03-11T17:44:21.670Z,3.80
2019-03-11T17:46:51.934Z,3.80
2019-03-11T17:49:23.565Z,3.80
2019-03-11T17:51:54.734Z,3.80
2019-03-11T17:54:25.599Z,3.70
2019-03-11T17:56:57.984Z,3.70
2019-03-11T17:59:29.769Z,3.70
2019-03-11T18:02:00.619Z,3.70
2019-03-11T18:04:32.698Z,3.70
2019-03-11T18:07:03.420Z,3.60
2019-03-11T18:09:33.835Z,3.60
2019-03-11T18:12:04.211Z,3.60
2019-03-11T18:14:34.512Z,3.60
2019-03-11T18:17:05.405Z,3.60
2019-03-11T18:19:36.673Z,3.50
2019-03-11T18:22:07.031Z,3.50
2019-03-11T18:24:37.620Z,3.50
2019-03-11T18:27:08.871Z,3.50
2019-03-11T18:29:39.739Z,3.40
2019-03-11T18:32:10.812Z,3.40
2019-03-11T18:34:41.702Z,3.40
2019-03-11T18:37:12.394Z,3.30
2019-03-11T18:39:43.142Z,3.30
2019-03-11T18:42:21.418Z,3.30
2019-03-11T18:44:47.670Z,3.30
2019-03-11T18:47:18.476Z,3.30
2019-03-11T18:49:49.483Z,3.20
2019-03-11T18:52:20.200Z,3.20
2019-03-11T18:54:50.708Z,3.10
2019-03-11T18:57:21.223Z,3.10
2019-03-11T18:59:51.616Z,3.10
2019-03-11T19:02:22.033Z,3.10
2019-03-11T19:04:52.635Z,3.10
2019-03-11T19:07:23.180Z,3.10
2019-03-11T19:09:54.023Z,3.10
2019-03-11T19:12:25.268Z,3.10
2019-03-11T19:14:55.828Z,3.00
2019-03-11T19:17:26.783Z,3.00
2019-03-11T19:19:59.962Z,3.00
2019-03-11T19:22:31.530Z,3.00
2019-03-11T19:25:03.834Z,2.90
2019-03-11T19:27:36.242Z,2.90
2019-03-11T19:30:10.883Z,2.90
2019-03-11T19:32:43.477Z,2.80
2019-03-11T19:35:18.447Z,2.90
2019-03-11T19:37:49.166Z,2.80
2019-03-11T19:40:20.994Z,2.80
2019-03-11T19:42:59.483Z,2.80
2019-03-11T19:45:32.737Z,2.70
2019-03-11T19:48:04.845Z,2.70
2019-03-11T19:50:37.611Z,2.70
2019-03-11T19:53:27.019Z,2.70
2019-03-11T19:55:58.287Z,2.70
2019-03-11T19:58:28.974Z,2.70
2019-03-11T20:00:59.880Z,2.70
2019-03-11T20:03:33.123Z,2.70
2019-03-11T20:06:03.709Z,2.70
2019-03-11T20:08:34.322Z,2.70
2019-03-11T20:11:06.803Z,2.60
2019-03-11T20:13:37.205Z,2.60
2019-03-11T20:16:09.633Z,2.50
2019-03-11T20:18:41.012Z,2.50
2019-03-11T20:21:14.376Z,2.50
2019-03-11T20:23:49.816Z,2.50
2019-03-11T20:26:25.056Z,2.50
2019-03-11T20:28:57.526Z,2.50
2019-03-11T20:31:35.302Z,2.50
2019-03-11T20:34:07.998Z,2.50
2019-03-11T20:36:39.435Z,2.50
2019-03-11T20:39:11.455Z,2.40
2019-03-11T20:41:44.843Z,2.40
2019-03-11T20:44:15.592Z,2.40
2019-03-11T20:46:48.821Z,2.40
2019-03-11T20:49:19.463Z,2.30
2019-03-11T20:51:50.580Z,2.30
2019-03-11T20:54:21.928Z,2.30
2019-03-11T20:56:56.168Z,2.30
2019-03-11T20:59:28.051Z,2.30
2019-03-11T21:02:00.826Z,2.20
2019-03-11T21:04:35.142Z,2.20
2019-03-11T21:07:07.001Z,2.20
2019-03-11T21:09:40.039Z,2.20
2019-03-11T21:12:11.910Z,2.20
2019-03-11T21:14:44.543Z,2.20
2019-03-11T21:17:25.603Z,2.10
2019-03-11T21:19:58.710Z,2.10
2019-03-11T21:22:32.965Z,2.20
2019-03-11T21:25:04.709Z,2.20
2019-03-11T21:27:45.913Z,2.20
2019-03-11T21:30:18.411Z,2.20
2019-03-11T21:32:49.518Z,2.20
2019-03-11T21:35:22.507Z,2.20
2019-03-11T21:37:55.508Z,2.20
2019-03-11T21:40:26.705Z,2.20
2019-03-11T21:42:57.709Z,2.20
2019-03-11T21:45:34.591Z,2.20
2019-03-11T21:48:05.352Z,2.20
2019-03-11T21:50:42.418Z,2.20
2019-03-11T21:53:17.718Z,2.20
2019-03-11T21:55:48.334Z,2.20
2019-03-11T21:58:21.024Z,2.20
2019-03-11T22:00:52.497Z,2.20
2019-03-11T22:03:24.482Z,2.20
2019-03-11T22:06:03.295Z,2.20
2019-03-11T22:08:41.278Z,2.20
2019-03-11T22:11:23.543Z,2.20
2019-03-11T22:13:57.891Z,2.20
2019-03-11T22:16:30.968Z,2.20
2019-03-11T22:19:09.087Z,2.20
2019-03-11T22:21:42.495Z,2.30
2019-03-11T22:24:15.688Z,2.30
2019-03-11T22:26:49.524Z,2.30
2019-03-11T22:29:24.503Z,2.30
2019-03-11T22:31:55.793Z,2.20
2019-03-11T22:34:33.386Z,2.20
2019-03-11T22:37:06.979Z,2.20
2019-03-11T22:39:38.463Z,2.20
2019-03-11T22:42:12.726Z,2.10
2019-03-11T22:44:45.660Z,2.10
2019-03-11T22:47:18.037Z,2.00
2019-03-11T22:49:50.090Z,2.10
2019-03-11T22:52:21.920Z,2.10
2019-03-11T22:54:53.895Z,2.10
2019-03-11T22:57:29.535Z,2.10
2019-03-11T23:00:00.583Z,2.00
2019-03-11T23:02:40.137Z,2.10
2019-03-11T23:05:10.855Z,2.10
2019-03-11T23:07:41.935Z,2.20
2019-03-11T23:10:12.697Z,2.20
2019-03-11T23:12:46.503Z,2.30
2019-03-11T23:15:20.173Z,2.30
2019-03-11T23:17:54.142Z,2.30
2019-03-11T23:20:24.918Z,2.30
2019-03-11T23:22:56.840Z,2.40
2019-03-11T23:25:29.011Z,2.40
2019-03-11T23:28:01.208Z,2.40
2019-03-11T23:30:36.501Z,2.40
2019-03-11T23:33:10.591Z,2.50
2019-03-11T23:35:49.355Z,2.50
2019-03-11T23:38:26.077Z,2.50
2019-03-11T23:40:59.808Z,2.50
2019-03-11T23:43:31.122Z,2.40
2019-03-11T23:46:02.496Z,2.30
2019-03-11T23:48:33.238Z,2.20
2019-03-11T23:51:04.311Z,2.20
2019-03-11T23:53:41.156Z,2.10
2019-03-11T23:56:16.636Z,2.00
2019-03-11T23:58:50.619Z,2.00
